Weather at Whalen Heliport

Public forecast

Using degrees Fahrenheit for public forecast. Weather courtesy of forecast.io.

Closest aviation weather report (METAR) to Whalen Heliport

Closest report is Clermont County Airport, 5.4 nm (10.1 km) NNW. Retrieved 2021/06/23 01:35 UTC (13 minutes ago):

KI69 230135Z AUTO 00000KT 10SM CLR 16/08 A3008 RMK AO2 T01610081

Closest aviation forecast (TAF) to Whalen Heliport

Closest forecast is Cincinnati Municipal Airport Lunken Field, 13.3 nm (24.7 km) WNW. Retrieved 2021-06-23 00:36 UTC (1 hour ago):

TAF KLUK 222335Z 2300/2324 VRB03KT P6SM SKC TEMPO 2308/2312 00000KT 4SM BR FM231200 14005KT P6SM BKN250 FM231500 25007KT P6SM SCT150 BKN250